createdAt,value
2019-05-29T00:00:40.169Z,89.48
2019-05-29T00:01:40.080Z,89.39
2019-05-29T00:02:39.993Z,90.63
2019-05-29T00:03:39.923Z,90.34
2019-05-29T00:04:39.838Z,91.02
2019-05-29T00:05:39.761Z,90.92
2019-05-29T00:06:39.674Z,91.16
2019-05-29T00:07:39.613Z,89.73
2019-05-29T00:08:39.530Z,89.48
2019-05-29T00:09:39.443Z,89.25
2019-05-29T00:10:39.359Z,90.16
2019-05-29T00:11:39.283Z,90.92
2019-05-29T00:12:39.204Z,90.73
2019-05-29T00:13:39.121Z,91.39
2019-05-29T00:14:39.042Z,90.59
2019-05-29T00:15:38.963Z,91.20
2019-05-29T00:16:38.882Z,91.83
2019-05-29T00:17:38.802Z,91.64
2019-05-29T00:18:38.728Z,92.74
2019-05-29T00:19:38.637Z,91.97
2019-05-29T00:20:38.562Z,91.30
2019-05-29T00:21:38.485Z,90.59
2019-05-29T00:22:38.402Z,89.82
2019-05-29T00:23:38.319Z,89.53
2019-05-29T00:24:38.240Z,89.53
2019-05-29T00:25:38.161Z,88.58
2019-05-29T00:26:38.082Z,89.53
2019-05-29T00:27:37.999Z,88.96
2019-05-29T00:28:37.921Z,89.34
2019-05-29T00:29:37.843Z,88.87
2019-05-29T00:30:37.764Z,89.73
2019-05-29T00:31:37.683Z,89.87
2019-05-29T00:32:37.865Z,90.68
2019-05-29T00:33:37.526Z,90.30
2019-05-29T00:34:37.447Z,90.01
2019-05-29T00:35:37.365Z,89.63
2019-05-29T00:36:37.293Z,89.34
2019-05-29T00:37:37.202Z,89.15
2019-05-29T00:38:37.120Z,89.92
2019-05-29T00:39:37.041Z,89.82
2019-05-29T00:40:36.962Z,88.68
2019-05-29T00:41:36.883Z,87.82
2019-05-29T00:42:36.807Z,87.77
2019-05-29T00:43:36.722Z,89.06
2019-05-29T00:44:36.640Z,88.68
2019-05-29T00:45:36.559Z,88.01
2019-05-29T00:46:36.481Z,89.34
2019-05-29T00:47:36.400Z,89.92
2019-05-29T00:48:36.323Z,90.39
2019-05-29T00:49:36.244Z,90.49
2019-05-29T00:50:36.161Z,90.11
2019-05-29T00:51:36.082Z,90.59
2019-05-29T00:52:36.006Z,90.68
2019-05-29T00:53:43.569Z,91.35
2019-05-29T00:55:40.219Z,92.45
2019-05-29T00:56:40.125Z,93.31
2019-05-29T00:58:43.943Z,93.79
2019-05-29T00:59:43.850Z,94.65
2019-05-29T01:00:43.771Z,95.41
2019-05-29T01:01:43.691Z,95.51
2019-05-29T01:02:43.618Z,95.89
2019-05-29T01:03:43.530Z,95.79
2019-05-29T01:04:43.451Z,96.37
2019-05-29T01:05:43.372Z,96.66
2019-05-29T01:06:43.294Z,97.04
2019-05-29T01:07:43.213Z,98.18
2019-05-29T01:08:43.133Z,98.28
2019-05-29T01:09:43.055Z,98.47
2019-05-29T01:10:42.970Z,99.33
2019-05-29T01:11:42.892Z,98.85
2019-05-29T01:12:42.811Z,98.18
2019-05-29T01:13:42.734Z,98.28
2019-05-29T01:14:50.164Z,98.66
2019-05-29T01:15:42.572Z,99.52
2019-05-29T01:16:42.491Z,99.04
2019-05-29T01:17:42.413Z,98.75
2019-05-29T01:18:42.335Z,98.47
2019-05-29T01:19:42.249Z,99.43
2019-05-29T01:20:42.173Z,99.24
2019-05-29T01:21:42.092Z,99.99
2019-05-29T01:22:42.011Z,99.99
2019-05-29T01:23:41.934Z,99.99
2019-05-29T01:24:41.856Z,99.99
2019-05-29T01:25:41.770Z,99.99
2019-05-29T01:26:41.693Z,99.99
2019-05-29T01:27:41.614Z,99.99
2019-05-29T01:28:41.533Z,99.99
2019-05-29T01:29:41.453Z,99.52
2019-05-29T01:30:41.373Z,98.95
2019-05-29T01:31:41.295Z,98.85
2019-05-29T01:32:41.216Z,99.62
2019-05-29T01:33:41.134Z,98.85
2019-05-29T01:34:41.055Z,98.85
2019-05-29T01:35:40.972Z,99.14
2019-05-29T01:36:40.899Z,96.56
2019-05-29T01:37:40.815Z,97.23
2019-05-29T01:38:40.739Z,97.13
2019-05-29T01:39:40.652Z,98.47
2019-05-29T01:40:40.576Z,98.66
2019-05-29T01:41:40.494Z,99.52
2019-05-29T01:42:40.411Z,99.04
2019-05-29T01:43:40.337Z,98.09
2019-05-29T01:44:40.258Z,98.66
2019-05-29T01:45:40.177Z,99.04
2019-05-29T01:46:40.098Z,97.13
2019-05-29T01:47:40.018Z,98.38
2019-05-29T01:48:39.938Z,99.99
2019-05-29T01:49:39.857Z,99.99
2019-05-29T01:50:39.778Z,99.99
2019-05-29T01:51:39.701Z,99.99
2019-05-29T01:52:39.632Z,99.99
2019-05-29T01:53:39.540Z,99.99
2019-05-29T01:54:39.466Z,99.99
2019-05-29T01:55:39.380Z,99.99
2019-05-29T01:56:39.297Z,99.99
2019-05-29T01:57:39.221Z,99.99
2019-05-29T01:58:39.142Z,99.99
2019-05-29T01:59:39.065Z,99.99
2019-05-29T02:00:38.982Z,99.99
2019-05-29T02:01:38.902Z,99.76
2019-05-29T02:02:38.823Z,99.48
2019-05-29T02:03:38.738Z,99.99
2019-05-29T02:04:38.661Z,99.48
2019-05-29T02:05:38.582Z,97.75
2019-05-29T02:06:38.501Z,99.19
2019-05-29T02:07:38.423Z,99.09
2019-05-29T02:08:38.339Z,99.48
2019-05-29T02:09:38.259Z,99.28
2019-05-29T02:10:38.182Z,98.52
2019-05-29T02:11:38.105Z,98.71
2019-05-29T02:12:38.017Z,99.48
2019-05-29T02:13:37.943Z,99.38
2019-05-29T02:14:37.865Z,99.38
2019-05-29T02:15:37.785Z,99.19
2019-05-29T02:16:37.702Z,98.42
2019-05-29T02:17:37.621Z,97.66
2019-05-29T02:18:37.544Z,97.08
2019-05-29T02:19:37.460Z,96.42
2019-05-29T02:20:37.384Z,96.70
2019-05-29T02:21:37.293Z,96.70
2019-05-29T02:22:37.226Z,97.75
2019-05-29T02:23:37.137Z,98.23
2019-05-29T02:24:37.062Z,98.23
2019-05-29T02:25:36.983Z,99.52
2019-05-29T02:26:36.900Z,99.38
2019-05-29T02:27:36.820Z,99.14
2019-05-29T02:28:36.743Z,99.43
2019-05-29T02:29:36.655Z,99.99
2019-05-29T02:30:36.585Z,99.33
2019-05-29T02:31:36.499Z,99.81
2019-05-29T02:32:36.426Z,99.62
2019-05-29T02:33:36.342Z,99.99
2019-05-29T02:34:36.262Z,99.99
2019-05-29T02:35:36.184Z,99.99
2019-05-29T02:36:36.106Z,99.99
2019-05-29T02:37:36.022Z,99.99
2019-05-29T02:38:35.944Z,99.62
2019-05-29T02:39:35.869Z,99.81
2019-05-29T02:40:35.784Z,99.81
2019-05-29T02:41:35.705Z,99.62
2019-05-29T02:42:35.623Z,99.81
2019-05-29T02:43:35.544Z,99.99
2019-05-29T02:44:35.477Z,99.99
2019-05-29T02:45:52.703Z,99.99
2019-05-29T02:46:35.304Z,99.99
2019-05-29T02:47:35.222Z,99.99
2019-05-29T02:48:35.150Z,99.99
2019-05-29T02:49:35.064Z,99.99
2019-05-29T02:50:34.987Z,99.81
2019-05-29T02:51:34.907Z,99.14
2019-05-29T02:52:34.829Z,99.43
2019-05-29T02:53:34.746Z,97.99
2019-05-29T02:54:34.660Z,97.71
2019-05-29T02:55:34.587Z,97.99
2019-05-29T02:56:34.507Z,98.71
2019-05-29T02:57:34.425Z,98.66
2019-05-29T02:58:34.352Z,98.71
2019-05-29T02:59:34.267Z,99.43
2019-05-29T03:00:34.189Z,99.04
2019-05-29T03:01:34.118Z,99.48
2019-05-29T03:02:34.036Z,97.66
2019-05-29T03:03:39.375Z,97.37
2019-05-29T03:04:33.871Z,98.33
2019-05-29T03:05:33.790Z,98.99
2019-05-29T03:06:33.705Z,99.38
2019-05-29T03:07:33.622Z,99.38
2019-05-29T03:08:34.390Z,98.52
2019-05-29T03:09:33.482Z,99.66
2019-05-29T03:10:33.386Z,99.66
2019-05-29T03:11:33.514Z,99.99
2019-05-29T03:12:33.672Z,99.99
2019-05-29T03:13:33.664Z,99.99
2019-05-29T03:14:34.730Z,99.99
2019-05-29T03:15:33.758Z,99.99
2019-05-29T03:16:34.778Z,99.99
2019-05-29T03:17:33.804Z,99.99
2019-05-29T03:18:34.737Z,99.99
2019-05-29T03:19:34.519Z,99.99
2019-05-29T03:20:34.089Z,99.99
2019-05-29T03:21:34.272Z,99.99
2019-05-29T03:22:33.740Z,99.99
2019-05-29T03:23:35.162Z,99.99
2019-05-29T03:24:33.087Z,99.99
2019-05-29T03:25:32.613Z,99.99
2019-05-29T03:26:33.460Z,99.99
2019-05-29T03:27:32.084Z,99.99
2019-05-29T03:28:33.000Z,99.99
2019-05-29T03:29:32.047Z,99.99
2019-05-29T03:30:38.753Z,99.99
2019-05-29T03:31:38.074Z,99.99
2019-05-29T03:32:38.892Z,99.99
2019-05-29T03:33:39.306Z,99.99
2019-05-29T03:34:37.802Z,99.99
2019-05-29T03:35:39.695Z,99.99
2019-05-29T03:36:38.391Z,99.99
2019-05-29T03:37:32.453Z,99.99
2019-05-29T03:38:32.669Z,99.99
2019-05-29T03:39:32.316Z,99.99
2019-05-29T03:40:32.818Z,99.99
2019-05-29T03:41:32.547Z,99.99
2019-05-29T03:42:32.389Z,99.99
2019-05-29T03:43:31.557Z,99.99
2019-05-29T03:44:30.876Z,99.99
2019-05-29T03:45:31.313Z,99.99
2019-05-29T03:46:38.738Z,99.99
2019-05-29T03:47:31.042Z,99.99
2019-05-29T03:48:32.199Z,99.99
2019-05-29T03:49:31.163Z,99.99
2019-05-29T03:50:31.196Z,99.71
2019-05-29T03:51:32.469Z,99.52
2019-05-29T03:52:30.365Z,97.80
2019-05-29T03:53:31.680Z,97.42
2019-05-29T03:54:30.921Z,97.03
2019-05-29T03:55:31.390Z,95.89
2019-05-29T03:56:30.650Z,95.32
2019-05-29T03:57:31.355Z,95.41
2019-05-29T03:58:30.977Z,96.56
2019-05-29T03:59:30.677Z,96.66
2019-05-29T04:00:31.885Z,96.94
2019-05-29T04:01:31.263Z,96.94
2019-05-29T04:02:31.040Z,96.84
2019-05-29T04:03:30.569Z,97.61
2019-05-29T04:04:29.142Z,97.03
2019-05-29T04:05:29.169Z,96.08
2019-05-29T04:06:29.174Z,96.84
2019-05-29T04:07:29.235Z,97.61
2019-05-29T04:08:29.492Z,97.61
2019-05-29T04:09:29.194Z,96.75
2019-05-29T04:10:29.370Z,97.61
2019-05-29T04:11:29.300Z,96.94
2019-05-29T04:12:29.548Z,96.75
2019-05-29T04:13:29.601Z,96.66
2019-05-29T04:14:29.702Z,97.94
2019-05-29T04:15:29.313Z,97.80
2019-05-29T04:16:29.465Z,97.71
2019-05-29T04:17:29.572Z,97.99
2019-05-29T04:18:29.582Z,98.75
2019-05-29T04:19:29.917Z,99.38
2019-05-29T04:20:29.421Z,98.80
2019-05-29T04:21:27.997Z,99.57
2019-05-29T04:22:28.318Z,99.09
2019-05-29T04:23:27.899Z,99.76
2019-05-29T04:24:27.938Z,99.99
2019-05-29T04:25:31.816Z,99.99
2019-05-29T04:26:27.931Z,99.99
2019-05-29T04:27:27.923Z,99.99
2019-05-29T04:28:27.932Z,99.99
2019-05-29T04:29:28.019Z,99.99
2019-05-29T04:30:28.147Z,99.99
2019-05-29T04:31:28.117Z,99.99
2019-05-29T04:32:28.084Z,99.99
2019-05-29T04:33:28.116Z,99.99
2019-05-29T04:34:26.649Z,99.99
2019-05-29T04:35:28.188Z,99.99
2019-05-29T04:36:28.299Z,99.99
2019-05-29T04:37:26.489Z,99.99
2019-05-29T04:38:26.331Z,99.99
2019-05-29T04:39:26.248Z,99.52
2019-05-29T04:40:26.167Z,99.14
2019-05-29T04:41:26.089Z,99.43
2019-05-29T04:42:26.011Z,96.75
2019-05-29T04:43:25.927Z,96.46
2019-05-29T04:44:25.853Z,95.89
2019-05-29T04:45:25.762Z,96.84
2019-05-29T04:46:25.701Z,95.98
2019-05-29T04:47:25.613Z,97.03
2019-05-29T04:48:25.524Z,96.66
2019-05-29T04:49:25.447Z,96.46
2019-05-29T04:50:25.364Z,95.89
2019-05-29T04:51:25.286Z,95.61
2019-05-29T04:52:25.208Z,96.46
2019-05-29T04:53:25.122Z,96.66
2019-05-29T04:54:25.043Z,98.37
2019-05-29T04:55:24.964Z,96.66
2019-05-29T04:56:24.881Z,97.61
2019-05-29T04:57:24.795Z,97.71
2019-05-29T04:58:24.723Z,96.94
2019-05-29T04:59:24.642Z,96.66
2019-05-29T05:00:24.560Z,97.42
2019-05-29T05:01:24.481Z,97.66
2019-05-29T05:02:24.401Z,97.66
2019-05-29T05:03:24.319Z,97.71
2019-05-29T05:04:24.241Z,97.71
2019-05-29T05:05:24.162Z,97.85
2019-05-29T05:06:24.077Z,98.42
2019-05-29T05:07:23.998Z,98.42
2019-05-29T05:08:23.917Z,99.09
2019-05-29T05:09:23.837Z,99.99
2019-05-29T05:10:23.754Z,99.99
2019-05-29T05:11:23.675Z,99.66
2019-05-29T05:12:23.596Z,99.95
2019-05-29T05:13:23.515Z,99.99
2019-05-29T05:14:23.442Z,99.99
2019-05-29T05:15:23.355Z,99.99
2019-05-29T05:16:23.279Z,99.99
2019-05-29T05:17:26.040Z,99.99
2019-05-29T05:18:23.115Z,99.14
2019-05-29T05:19:23.035Z,98.37
2019-05-29T05:20:22.959Z,97.28
2019-05-29T05:21:22.872Z,96.75
2019-05-29T05:22:22.795Z,97.99
2019-05-29T05:23:22.715Z,97.56
2019-05-29T05:24:22.636Z,97.61
2019-05-29T05:25:22.548Z,98.94
2019-05-29T05:26:22.476Z,98.57
2019-05-29T05:27:22.398Z,98.23
2019-05-29T05:28:22.316Z,97.75
2019-05-29T05:29:22.240Z,99.28
2019-05-29T05:30:22.155Z,99.09
2019-05-29T05:31:22.071Z,98.61
2019-05-29T05:32:21.989Z,97.75
2019-05-29T05:33:21.915Z,97.18
2019-05-29T05:34:21.835Z,97.85
2019-05-29T05:35:21.754Z,98.71
2019-05-29T05:36:21.676Z,98.61
2019-05-29T05:37:21.595Z,99.28
2019-05-29T05:38:21.516Z,99.38
2019-05-29T05:39:21.432Z,97.66
2019-05-29T05:40:21.368Z,99.19
2019-05-29T05:41:21.277Z,98.99
2019-05-29T05:42:21.191Z,99.99
2019-05-29T05:43:24.085Z,98.13
2019-05-29T05:44:21.036Z,98.33
2019-05-29T05:45:20.962Z,97.94
2019-05-29T05:46:20.875Z,97.85
2019-05-29T05:47:20.795Z,97.75
2019-05-29T05:48:20.716Z,99.99
2019-05-29T05:49:20.637Z,99.09
2019-05-29T05:50:20.560Z,99.99
2019-05-29T05:51:20.476Z,99.09
2019-05-29T05:52:20.400Z,99.19
2019-05-29T05:53:20.318Z,99.48
2019-05-29T05:54:20.238Z,99.99
2019-05-29T05:55:20.157Z,99.99
2019-05-29T05:56:20.078Z,99.99
2019-05-29T05:57:19.998Z,99.99
2019-05-29T05:58:19.916Z,99.99
2019-05-29T05:59:19.837Z,99.66
2019-05-29T06:00:19.757Z,99.95
2019-05-29T06:01:19.680Z,98.99
2019-05-29T06:02:19.602Z,99.99
2019-05-29T06:03:19.521Z,99.99
2019-05-29T06:04:19.449Z,99.38
2019-05-29T06:05:19.354Z,99.99
2019-05-29T06:06:19.284Z,99.99
2019-05-29T06:07:19.201Z,98.80
2019-05-29T06:08:19.123Z,99.66
2019-05-29T06:09:19.038Z,99.52
2019-05-29T06:10:18.963Z,98.23
2019-05-29T06:11:18.884Z,99.99
2019-05-29T06:12:18.803Z,99.99
2019-05-29T06:13:18.718Z,99.99
2019-05-29T06:14:18.644Z,99.99
2019-05-29T06:15:18.558Z,99.99
2019-05-29T06:16:18.489Z,99.52
2019-05-29T06:17:21.753Z,99.99
2019-05-29T06:18:21.641Z,99.99
2019-05-29T06:19:18.248Z,99.99
2019-05-29T06:20:18.165Z,99.99
2019-05-29T06:21:18.088Z,99.99
2019-05-29T06:22:18.011Z,99.99
2019-05-29T06:23:17.998Z,99.99
2019-05-29T06:24:17.843Z,99.99
2019-05-29T06:25:18.136Z,99.99
2019-05-29T06:26:17.691Z,99.99
2019-05-29T06:27:17.603Z,99.99
2019-05-29T06:28:17.530Z,99.99
2019-05-29T06:29:17.469Z,99.99
2019-05-29T06:30:17.370Z,99.99
2019-05-29T06:31:17.291Z,99.99
2019-05-29T06:32:17.233Z,99.99
2019-05-29T06:33:17.129Z,99.99
2019-05-29T06:34:17.061Z,99.99
2019-05-29T06:35:16.975Z,99.99
2019-05-29T06:36:16.895Z,99.99
2019-05-29T06:37:16.817Z,99.99
2019-05-29T06:38:16.751Z,99.99
2019-05-29T06:39:16.699Z,99.99
2019-05-29T06:40:16.605Z,99.99
2019-05-29T06:41:16.499Z,99.99
2019-05-29T06:42:16.422Z,99.99
2019-05-29T06:43:16.340Z,99.99
2019-05-29T06:44:16.260Z,99.99
2019-05-29T06:45:16.221Z,99.99
2019-05-29T06:46:16.102Z,98.18
2019-05-29T06:47:16.023Z,98.66
2019-05-29T06:48:15.943Z,99.99
2019-05-29T06:49:15.868Z,99.99
2019-05-29T06:50:15.783Z,99.99
2019-05-29T06:51:15.703Z,99.99
2019-05-29T06:52:15.624Z,99.99
2019-05-29T06:53:15.539Z,99.99
2019-05-29T06:54:22.637Z,99.99
2019-05-29T06:56:19.772Z,99.99
2019-05-29T06:57:19.680Z,99.99
2019-05-29T06:58:19.606Z,99.99
2019-05-29T06:59:19.517Z,99.99
2019-05-29T07:00:34.399Z,99.99
2019-05-29T07:01:19.359Z,99.99
2019-05-29T07:02:19.277Z,99.99
2019-05-29T07:03:19.196Z,99.99
2019-05-29T07:04:19.121Z,99.99
2019-05-29T07:05:19.039Z,99.99
2019-05-29T07:06:18.961Z,99.99
2019-05-29T07:07:18.880Z,99.99
2019-05-29T07:08:28.928Z,99.99
2019-05-29T07:09:18.724Z,99.99
2019-05-29T07:10:18.642Z,99.99
2019-05-29T07:11:18.567Z,99.99
2019-05-29T07:12:18.485Z,99.99
2019-05-29T07:13:18.403Z,99.99
2019-05-29T07:14:18.325Z,99.99
2019-05-29T07:15:18.252Z,99.99
2019-05-29T07:16:18.171Z,99.99
2019-05-29T07:17:18.088Z,99.99
2019-05-29T07:20:03.955Z,99.99
2019-05-29T07:21:00.966Z,99.99
2019-05-29T07:23:06.288Z,99.99
2019-05-29T07:24:06.202Z,99.99
2019-05-29T07:25:06.120Z,99.99
2019-05-29T07:26:06.048Z,99.99
2019-05-29T07:27:05.972Z,99.99
2019-05-29T07:28:05.887Z,99.99
2019-05-29T07:29:08.325Z,99.99
2019-05-29T07:30:05.727Z,99.99
2019-05-29T07:31:05.645Z,99.99
2019-05-29T07:32:05.569Z,99.99
2019-05-29T07:33:05.490Z,99.99
2019-05-29T07:34:05.436Z,99.99
2019-05-29T07:35:05.335Z,99.99
2019-05-29T07:36:05.251Z,99.99
2019-05-29T07:37:05.170Z,99.99
2019-05-29T07:38:05.097Z,99.99
2019-05-29T07:39:05.022Z,99.99
2019-05-29T07:40:04.940Z,99.99
2019-05-29T07:41:04.864Z,99.99
2019-05-29T07:42:04.784Z,99.99
2019-05-29T07:43:04.714Z,99.99
2019-05-29T07:44:04.626Z,99.99
2019-05-29T07:45:04.547Z,99.99
2019-05-29T07:46:04.467Z,99.99
2019-05-29T07:47:04.388Z,99.99
2019-05-29T07:48:04.308Z,99.99
2019-05-29T07:49:04.233Z,99.99
2019-05-29T07:50:04.155Z,99.99
2019-05-29T07:51:06.913Z,99.99
2019-05-29T07:52:03.996Z,99.99
2019-05-29T07:53:03.938Z,99.99
2019-05-29T07:54:03.840Z,99.99
2019-05-29T07:55:03.761Z,99.99
2019-05-29T07:56:03.682Z,99.99
2019-05-29T07:57:03.603Z,99.99
2019-05-29T07:58:03.525Z,99.99
2019-05-29T07:59:03.762Z,99.99
2019-05-29T08:00:03.371Z,99.99
2019-05-29T08:01:12.636Z,99.99
2019-05-29T08:02:03.212Z,99.99
2019-05-29T08:03:03.134Z,99.99
2019-05-29T08:04:03.066Z,99.99
2019-05-29T08:05:02.976Z,99.99
2019-05-29T08:06:02.919Z,99.99
2019-05-29T08:07:02.820Z,99.99
2019-05-29T08:08:02.738Z,99.99
2019-05-29T08:09:02.659Z,99.99
2019-05-29T08:10:02.580Z,99.99
2019-05-29T08:11:02.502Z,99.99
2019-05-29T08:12:02.421Z,99.99
2019-05-29T08:13:02.347Z,99.99
2019-05-29T08:14:02.267Z,99.99
2019-05-29T08:15:02.187Z,99.99
2019-05-29T08:16:03.326Z,99.99
2019-05-29T08:17:02.055Z,99.99
